Time,TemperatureF,DewpointF,PressureIn,WindDirection,WindDirectionDegrees,WindSpeedMPH,WindSpeedGustMPH,Humidity,HourlyPrecipIn,Conditions,Clouds,dailyrainin,SoftwareType,DateUTC
2013-01-07 00:00:00,30.8,25.7,29.31,West,270,1.6,1.6,81,0.00,,,0.00,WUHU216HW,2013-01-07 05:00:00,
2013-01-07 00:01:00,30.8,25.7,29.31,West,270,1.6,1.6,81,0.00,,,0.00,WUHU216HW,2013-01-07 05:01:00,
2013-01-07 00:06:00,30.8,25.7,29.31,West,270,1.6,1.6,81,0.00,,,0.00,WUHU216HW,2013-01-07 05:06:00,
2013-01-07 00:30:00,30.6,25.5,29.31,WNW,293,0.0,0.0,81,0.00,,,0.00,WUHU216HW,2013-01-07 05:30:00,
2013-01-07 00:35:00,30.6,25.5,29.31,WNW,293,0.0,0.0,81,0.00,,,0.00,WUHU216HW,2013-01-07 05:35:00,
2013-01-07 08:30:00,27.2,21.5,29.40,South,180,1.8,1.8,79,0.00,,,0.00,WUHU216HW,2013-01-07 13:30:00,
2013-01-07 08:35:00,27.2,21.5,29.40,South,180,1.8,1.8,79,0.00,,,0.00,WUHU216HW,2013-01-07 13:35:00,
2013-01-07 09:00:00,27.7,22.1,29.40,South,180,4.0,4.0,79,0.00,,,0.00,WUHU216HW,2013-01-07 14:00:00,
2013-01-07 09:05:00,27.7,22.1,29.40,South,180,4.0,4.0,79,0.00,,,0.00,WUHU216HW,2013-01-07 14:05:00,
2013-01-07 09:30:00,29.2,23.1,29.41,South,180,3.4,3.4,78,0.00,,,0.00,WUHU216HW,2013-01-07 14:30:00,
2013-01-07 09:35:00,29.2,23.1,29.41,South,180,3.4,3.4,78,0.00,,,0.00,WUHU216HW,2013-01-07 14:35:00,
2013-01-07 10:00:00,30.4,24.0,29.41,South,180,6.3,6.3,77,0.00,,,0.00,WUHU216HW,2013-01-07 15:00:00,
2013-01-07 10:05:00,30.4,24.0,29.41,South,180,6.3,6.3,77,0.00,,,0.00,WUHU216HW,2013-01-07 15:05:00,
2013-01-07 10:30:00,31.7,24.7,29.40,SSW,203,3.6,3.6,75,0.00,,,0.00,WUHU216HW,2013-01-07 15:30:00,
2013-01-07 10:35:00,31.7,24.7,29.40,SSW,203,3.6,3.6,75,0.00,,,0.00,WUHU216HW,2013-01-07 15:35:00,
2013-01-07 11:00:00,32.6,25.2,29.40,SSE,158,6.0,6.0,74,0.00,,,0.00,WUHU216HW,2013-01-07 16:00:00,
2013-01-07 11:05:00,32.6,25.2,29.40,SSE,158,6.0,6.0,74,0.00,,,0.00,WUHU216HW,2013-01-07 16:05:00,
2013-01-07 11:30:00,33.5,25.7,29.38,WSW,248,4.5,4.5,73,0.00,,,0.00,WUHU216HW,2013-01-07 16:30:00,
2013-01-07 11:35:00,33.5,25.7,29.38,WSW,248,4.5,4.5,73,0.00,,,0.00,WUHU216HW,2013-01-07 16:35:00,
2013-01-07 12:00:00,33.8,25.0,29.36,SSE,158,3.4,3.4,70,0.00,,,0.00,WUHU216HW,2013-01-07 17:00:00,
2013-01-07 12:05:00,33.8,25.0,29.36,SSE,158,3.4,3.4,70,0.00,,,0.00,WUHU216HW,2013-01-07 17:05:00,
2013-01-07 12:30:00,34.7,26.3,29.34,South,180,4.0,4.0,71,0.00,,,0.00,WUHU216HW,2013-01-07 17:30:00,
2013-01-07 12:35:00,34.7,26.3,29.34,South,180,4.0,4.0,71,0.00,,,0.00,WUHU216HW,2013-01-07 17:35:00,
2013-01-07 13:00:00,35.6,26.5,29.32,SW,225,6.3,6.3,69,0.01,,,0.00,WUHU216HW,2013-01-07 18:00:00,
2013-01-07 13:05:00,35.6,26.5,29.32,SW,225,6.3,6.3,69,0.01,,,0.00,WUHU216HW,2013-01-07 18:05:00,
2013-01-07 13:30:00,36.0,26.1,29.30,SSE,158,11.9,11.9,67,0.01,,,0.01,WUHU216HW,2013-01-07 18:30:00,
2013-01-07 13:35:00,36.0,26.1,29.30,SSE,158,11.9,11.9,67,0.01,,,0.01,WUHU216HW,2013-01-07 18:35:00,
2013-01-07 14:00:00,35.8,25.6,29.28,SSE,158,6.7,6.7,66,0.00,,,0.01,WUHU216HW,2013-01-07 19:00:00,
2013-01-07 14:05:00,35.8,25.6,29.28,SSE,158,6.7,6.7,66,0.00,,,0.01,WUHU216HW,2013-01-07 19:05:00,
2013-01-07 14:30:00,35.8,25.9,29.27,SSE,158,4.9,4.9,67,0.01,,,0.01,WUHU216HW,2013-01-07 19:30:00,
2013-01-07 14:35:00,35.8,25.9,29.27,SSE,158,4.9,4.9,67,0.01,,,0.01,WUHU216HW,2013-01-07 19:35:00,
2013-01-07 15:00:00,35.6,25.7,29.26,South,180,6.9,6.9,67,0.02,,,0.02,WUHU216HW,2013-01-07 20:00:00,
2013-01-07 15:05:00,35.6,25.7,29.26,South,180,6.9,6.9,67,0.02,,,0.02,WUHU216HW,2013-01-07 20:05:00,
2013-01-07 15:30:00,34.2,25.0,29.26,South,180,11.4,11.4,69,0.02,,,0.03,WUHU216HW,2013-01-07 20:30:00,
2013-01-07 15:35:00,34.2,25.0,29.26,South,180,11.4,11.4,69,0.02,,,0.03,WUHU216HW,2013-01-07 20:35:00,
2013-01-07 16:00:00,33.8,24.7,29.25,SW,225,4.3,4.3,69,0.01,,,0.04,WUHU216HW,2013-01-07 21:00:00,
2013-01-07 16:05:00,33.8,24.7,29.25,SW,225,4.3,4.3,69,0.01,,,0.04,WUHU216HW,2013-01-07 21:05:00,
2013-01-07 16:30:00,32.8,24.0,29.25,South,180,6.9,6.9,70,0.00,,,0.04,WUHU216HW,2013-01-07 21:30:00,
2013-01-07 16:35:00,32.8,24.0,29.25,South,180,6.9,6.9,70,0.00,,,0.04,WUHU216HW,2013-01-07 21:35:00,
2013-01-07 17:00:00,31.9,24.2,29.25,South,180,4.3,4.3,73,0.00,,,0.04,WUHU216HW,2013-01-07 22:00:00,
2013-01-07 17:05:00,31.9,24.2,29.25,South,180,4.3,4.3,73,0.00,,,0.04,WUHU216HW,2013-01-07 22:05:00,
2013-01-07 17:30:00,30.6,24.0,29.24,South,180,6.9,6.9,76,0.00,,,0.04,WUHU216HW,2013-01-07 22:30:00,
2013-01-07 17:35:00,30.6,24.0,29.24,South,180,6.9,6.9,76,0.00,,,0.04,WUHU216HW,2013-01-07 22:35:00,
2013-01-07 18:00:00,29.9,23.2,29.25,WSW,248,4.7,4.7,76,0.00,,,0.04,WUHU216HW,2013-01-07 23:00:00,
2013-01-07 18:05:00,29.9,23.2,29.25,WSW,248,4.7,4.7,76,0.00,,,0.04,WUHU216HW,2013-01-07 23:05:00,
2013-01-07 18:30:00,29.2,23.5,29.24,SSE,158,7.2,7.2,79,0.00,,,0.04,WUHU216HW,2013-01-07 23:30:00,
2013-01-07 18:35:00,29.2,23.5,29.24,SSE,158,7.2,7.2,79,0.00,,,0.04,WUHU216HW,2013-01-07 23:35:00,
2013-01-07 19:00:00,28.6,23.2,29.23,South,180,6.5,6.5,80,0.00,,,0.04,WUHU216HW,2013-01-08 00:00:00,
2013-01-07 19:05:00,28.6,23.2,29.23,South,180,6.5,6.5,80,0.00,,,0.04,WUHU216HW,2013-01-08 00:05:00,
2013-01-07 19:30:00,28.4,23.3,29.23,SSE,158,7.6,7.6,81,0.00,,,0.04,WUHU216HW,2013-01-08 00:30:00,
2013-01-07 19:35:00,28.4,23.3,29.23,SSE,158,7.6,7.6,81,0.00,,,0.04,WUHU216HW,2013-01-08 00:35:00,
2013-01-07 20:00:00,28.3,23.4,29.21,SSW,203,8.5,8.5,82,0.00,,,0.04,WUHU216HW,2013-01-08 01:00:00,
2013-01-07 20:05:00,28.3,23.4,29.21,SSW,203,8.5,8.5,82,0.00,,,0.04,WUHU216HW,2013-01-08 01:05:00,
2013-01-07 20:30:00,28.4,23.3,29.21,South,180,8.9,8.9,81,0.00,,,0.04,WUHU216HW,2013-01-08 01:30:00,
2013-01-07 20:35:00,28.4,23.3,29.21,South,180,8.9,8.9,81,0.00,,,0.04,WUHU216HW,2013-01-08 01:35:00,
2013-01-07 21:00:00,28.4,23.0,29.20,SSE,158,7.4,7.4,80,0.00,,,0.04,WUHU216HW,2013-01-08 02:00:00,
2013-01-07 21:05:00,28.4,23.0,29.20,SSE,158,7.4,7.4,80,0.00,,,0.04,WUHU216HW,2013-01-08 02:05:00,
2013-01-07 21:30:00,28.3,22.6,29.20,South,180,8.5,8.5,79,0.00,,,0.04,WUHU216HW,2013-01-08 02:30:00,
2013-01-07 21:35:00,28.3,22.6,29.20,South,180,8.5,8.5,79,0.00,,,0.04,WUHU216HW,2013-01-08 02:35:00,
2013-01-07 22:00:00,27.9,22.2,29.20,SSE,158,3.8,3.8,79,0.00,,,0.04,WUHU216HW,2013-01-08 03:00:00,